sensor_id;sensor_type;location;lat;lon;timestamp;P1;durP1;ratioP1;P2;durP2;ratioP2
51048;SDS011;37084;55.228;36.450;2023-08-07T00:01:06;8.65;;;4.85;;
51048;SDS011;37084;55.228;36.450;2023-08-07T00:04:08;5.47;;;4.35;;
51048;SDS011;37084;55.228;36.450;2023-08-07T00:07:09;9.30;;;4.50;;
51048;SDS011;37084;55.228;36.450;2023-08-07T00:10:11;6.93;;;4.82;;
51048;SDS011;37084;55.228;36.450;2023-08-07T00:13:12;5.45;;;4.35;;
51048;SDS011;37084;55.228;36.450;2023-08-07T00:16:13;7.00;;;4.82;;
51048;SDS011;37084;55.228;36.450;2023-08-07T00:19:15;7.60;;;4.75;;
51048;SDS011;37084;55.228;36.450;2023-08-07T00:22:17;9.18;;;5.22;;
51048;SDS011;37084;55.228;36.450;2023-08-07T00:25:19;6.53;;;4.57;;
51048;SDS011;37084;55.228;36.450;2023-08-07T00:28:20;7.47;;;4.50;;
51048;SDS011;37084;55.228;36.450;2023-08-07T00:31:21;6.55;;;4.63;;
51048;SDS011;37084;55.228;36.450;2023-08-07T00:34:22;5.68;;;4.10;;
51048;SDS011;37084;55.228;36.450;2023-08-07T00:37:24;8.02;;;4.53;;
51048;SDS011;37084;55.228;36.450;2023-08-07T00:40:25;9.27;;;4.57;;
51048;SDS011;37084;55.228;36.450;2023-08-07T00:43:26;9.95;;;5.22;;
51048;SDS011;37084;55.228;36.450;2023-08-07T00:46:28;6.78;;;4.75;;
51048;SDS011;37084;55.228;36.450;2023-08-07T00:49:31;6.50;;;4.60;;
51048;SDS011;37084;55.228;36.450;2023-08-07T00:52:33;7.18;;;4.10;;
51048;SDS011;37084;55.228;36.450;2023-08-07T00:55:34;8.77;;;4.43;;
51048;SDS011;37084;55.228;36.450;2023-08-07T00:58:36;6.40;;;4.47;;
51048;SDS011;37084;55.228;36.450;2023-08-07T01:01:37;6.88;;;4.32;;
51048;SDS011;37084;55.228;36.450;2023-08-07T01:04:40;8.15;;;4.40;;
51048;SDS011;37084;55.228;36.450;2023-08-07T01:07:42;7.28;;;4.25;;
51048;SDS011;37084;55.228;36.450;2023-08-07T01:17:15;7.43;;;4.03;;
51048;SDS011;37084;55.228;36.450;2023-08-07T01:20:17;10.70;;;4.47;;
51048;SDS011;37084;55.228;36.450;2023-08-07T01:23:18;9.52;;;4.82;;
51048;SDS011;37084;55.228;36.450;2023-08-07T01:26:20;6.07;;;4.38;;
51048;SDS011;37084;55.228;36.450;2023-08-07T01:29:23;6.18;;;3.90;;
51048;SDS011;37084;55.228;36.450;2023-08-07T01:38:45;9.77;;;4.82;;
51048;SDS011;37084;55.228;36.450;2023-08-07T01:41:48;6.53;;;4.40;;
51048;SDS011;37084;55.228;36.450;2023-08-07T01:44:49;8.02;;;4.40;;
51048;SDS011;37084;55.228;36.450;2023-08-07T01:47:52;5.90;;;4.22;;
51048;SDS011;37084;55.228;36.450;2023-08-07T01:50:53;7.07;;;4.82;;
51048;SDS011;37084;55.228;36.450;2023-08-07T01:53:56;6.30;;;4.47;;
51048;SDS011;37084;55.228;36.450;2023-08-07T01:56:57;7.63;;;4.80;;
51048;SDS011;37084;55.228;36.450;2023-08-07T01:59:59;8.75;;;4.68;;
51048;SDS011;37084;55.228;36.450;2023-08-07T02:03:00;8.38;;;4.80;;
51048;SDS011;37084;55.228;36.450;2023-08-07T02:06:01;8.80;;;4.43;;
51048;SDS011;37084;55.228;36.450;2023-08-07T02:09:03;9.75;;;4.50;;
51048;SDS011;37084;55.228;36.450;2023-08-07T02:12:05;7.55;;;4.72;;
51048;SDS011;37084;55.228;36.450;2023-08-07T02:15:06;6.35;;;4.72;;
51048;SDS011;37084;55.228;36.450;2023-08-07T02:18:09;6.97;;;4.80;;
51048;SDS011;37084;55.228;36.450;2023-08-07T02:21:10;9.50;;;4.78;;
51048;SDS011;37084;55.228;36.450;2023-08-07T02:24:13;10.68;;;4.93;;
51048;SDS011;37084;55.228;36.450;2023-08-07T02:27:14;6.10;;;4.38;;
51048;SDS011;37084;55.228;36.450;2023-08-07T02:30:16;8.15;;;4.47;;
51048;SDS011;37084;55.228;36.450;2023-08-07T02:33:17;5.70;;;4.65;;
51048;SDS011;37084;55.228;36.450;2023-08-07T02:36:19;7.57;;;4.40;;
51048;SDS011;37084;55.228;36.450;2023-08-07T02:39:22;13.20;;;4.53;;
51048;SDS011;37084;55.228;36.450;2023-08-07T02:42:23;6.72;;;4.40;;
51048;SDS011;37084;55.228;36.450;2023-08-07T02:45:24;9.70;;;4.80;;
51048;SDS011;37084;55.228;36.450;2023-08-07T02:48:25;6.35;;;4.40;;
51048;SDS011;37084;55.228;36.450;2023-08-07T02:51:27;7.07;;;4.70;;
51048;SDS011;37084;55.228;36.450;2023-08-07T02:54:28;7.22;;;4.03;;
51048;SDS011;37084;55.228;36.450;2023-08-07T02:57:29;7.03;;;4.63;;
51048;SDS011;37084;55.228;36.450;2023-08-07T03:00:30;6.07;;;4.13;;
51048;SDS011;37084;55.228;36.450;2023-08-07T03:03:32;7.00;;;4.15;;
51048;SDS011;37084;55.228;36.450;2023-08-07T03:06:33;6.35;;;4.10;;
51048;SDS011;37084;55.228;36.450;2023-08-07T03:09:34;6.55;;;4.13;;
51048;SDS011;37084;55.228;36.450;2023-08-07T03:12:35;9.10;;;4.45;;
51048;SDS011;37084;55.228;36.450;2023-08-07T03:15:38;5.35;;;4.20;;
51048;SDS011;37084;55.228;36.450;2023-08-07T03:18:39;7.30;;;3.95;;
51048;SDS011;37084;55.228;36.450;2023-08-07T03:21:41;5.30;;;3.90;;
51048;SDS011;37084;55.228;36.450;2023-08-07T03:24:46;8.45;;;4.50;;
51048;SDS011;37084;55.228;36.450;2023-08-07T03:27:49;8.55;;;4.70;;
51048;SDS011;37084;55.228;36.450;2023-08-07T03:30:50;5.60;;;3.60;;
51048;SDS011;37084;55.228;36.450;2023-08-07T03:33:52;5.72;;;4.13;;
51048;SDS011;37084;55.228;36.450;2023-08-07T03:36:54;8.82;;;3.70;;
51048;SDS011;37084;55.228;36.450;2023-08-07T03:39:56;12.85;;;4.40;;
51048;SDS011;37084;55.228;36.450;2023-08-07T03:42:57;9.35;;;4.10;;
51048;SDS011;37084;55.228;36.450;2023-08-07T03:45:59;6.25;;;3.63;;
51048;SDS011;37084;55.228;36.450;2023-08-07T03:49:00;6.90;;;3.50;;
51048;SDS011;37084;55.228;36.450;2023-08-07T03:52:04;6.72;;;4.25;;
51048;SDS011;37084;55.228;36.450;2023-08-07T03:55:05;7.15;;;4.15;;
51048;SDS011;37084;55.228;36.450;2023-08-07T03:58:07;5.57;;;3.58;;
51048;SDS011;37084;55.228;36.450;2023-08-07T04:01:08;5.47;;;3.72;;
51048;SDS011;37084;55.228;36.450;2023-08-07T04:07:13;6.88;;;3.85;;
51048;SDS011;37084;55.228;36.450;2023-08-07T04:10:15;6.50;;;3.38;;
51048;SDS011;37084;55.228;36.450;2023-08-07T04:13:16;6.75;;;3.50;;
51048;SDS011;37084;55.228;36.450;2023-08-07T04:16:17;5.82;;;3.53;;
51048;SDS011;37084;55.228;36.450;2023-08-07T04:19:18;7.55;;;3.97;;
51048;SDS011;37084;55.228;36.450;2023-08-07T04:22:20;7.03;;;4.13;;
51048;SDS011;37084;55.228;36.450;2023-08-07T04:25:21;5.63;;;3.92;;
51048;SDS011;37084;55.228;36.450;2023-08-07T04:28:23;5.90;;;3.78;;
51048;SDS011;37084;55.228;36.450;2023-08-07T04:31:24;5.25;;;3.25;;
51048;SDS011;37084;55.228;36.450;2023-08-07T04:34:25;5.72;;;3.80;;
51048;SDS011;37084;55.228;36.450;2023-08-07T04:37:26;6.10;;;4.05;;
51048;SDS011;37084;55.228;36.450;2023-08-07T04:40:28;5.75;;;3.95;;
51048;SDS011;37084;55.228;36.450;2023-08-07T04:43:29;8.05;;;3.78;;
51048;SDS011;37084;55.228;36.450;2023-08-07T04:46:31;6.47;;;3.72;;
51048;SDS011;37084;55.228;36.450;2023-08-07T04:49:33;5.22;;;3.30;;
51048;SDS011;37084;55.228;36.450;2023-08-07T04:52:35;6.85;;;3.60;;
51048;SDS011;37084;55.228;36.450;2023-08-07T04:55:36;5.82;;;3.70;;
51048;SDS011;37084;55.228;36.450;2023-08-07T04:58:38;8.27;;;3.70;;
51048;SDS011;37084;55.228;36.450;2023-08-07T05:01:39;5.68;;;3.45;;
51048;SDS011;37084;55.228;36.450;2023-08-07T05:04:40;6.05;;;3.35;;
51048;SDS011;37084;55.228;36.450;2023-08-07T05:07:41;4.53;;;3.25;;
51048;SDS011;37084;55.228;36.450;2023-08-07T05:10:43;5.65;;;3.35;;
51048;SDS011;37084;55.228;36.450;2023-08-07T05:13:44;4.95;;;3.25;;
51048;SDS011;37084;55.228;36.450;2023-08-07T05:16:46;6.28;;;3.38;;
51048;SDS011;37084;55.228;36.450;2023-08-07T05:19:47;4.68;;;3.20;;
51048;SDS011;37084;55.228;36.450;2023-08-07T05:22:48;5.18;;;3.20;;
51048;SDS011;37084;55.228;36.450;2023-08-07T05:25:50;6.32;;;3.13;;
51048;SDS011;37084;55.228;36.450;2023-08-07T05:28:52;7.10;;;3.28;;
51048;SDS011;37084;55.228;36.450;2023-08-07T05:31:56;6.45;;;3.25;;
51048;SDS011;37084;55.228;36.450;2023-08-07T05:34:58;8.68;;;3.45;;
51048;SDS011;37084;55.228;36.450;2023-08-07T05:37:59;5.28;;;3.25;;
51048;SDS011;37084;55.228;36.450;2023-08-07T05:41:00;7.78;;;3.65;;
51048;SDS011;37084;55.228;36.450;2023-08-07T05:44:01;6.57;;;3.10;;
51048;SDS011;37084;55.228;36.450;2023-08-07T05:47:03;5.90;;;3.13;;
51048;SDS011;37084;55.228;36.450;2023-08-07T05:50:05;4.13;;;3.23;;
51048;SDS011;37084;55.228;36.450;2023-08-07T05:53:08;4.68;;;3.83;;
51048;SDS011;37084;55.228;36.450;2023-08-07T05:56:09;5.50;;;3.13;;
51048;SDS011;37084;55.228;36.450;2023-08-07T05:59:11;6.50;;;3.13;;
51048;SDS011;37084;55.228;36.450;2023-08-07T06:02:12;4.82;;;2.70;;
51048;SDS011;37084;55.228;36.450;2023-08-07T06:05:13;4.70;;;2.88;;
51048;SDS011;37084;55.228;36.450;2023-08-07T06:08:17;5.47;;;3.08;;
51048;SDS011;37084;55.228;36.450;2023-08-07T06:11:18;7.45;;;3.13;;
51048;SDS011;37084;55.228;36.450;2023-08-07T06:14:20;5.50;;;3.08;;
51048;SDS011;37084;55.228;36.450;2023-08-07T06:17:22;4.72;;;2.72;;
51048;SDS011;37084;55.228;36.450;2023-08-07T06:20:23;7.13;;;2.70;;
51048;SDS011;37084;55.228;36.450;2023-08-07T06:23:25;3.95;;;2.75;;
51048;SDS011;37084;55.228;36.450;2023-08-07T06:26:26;7.75;;;2.53;;
51048;SDS011;37084;55.228;36.450;2023-08-07T06:29:27;4.20;;;2.67;;
51048;SDS011;37084;55.228;36.450;2023-08-07T06:32:30;5.75;;;3.13;;
51048;SDS011;37084;55.228;36.450;2023-08-07T06:35:37;4.00;;;2.70;;
51048;SDS011;37084;55.228;36.450;2023-08-07T06:38:39;3.17;;;2.42;;
51048;SDS011;37084;55.228;36.450;2023-08-07T06:41:40;4.32;;;2.80;;
51048;SDS011;37084;55.228;36.450;2023-08-07T06:44:43;5.95;;;2.42;;
51048;SDS011;37084;55.228;36.450;2023-08-07T06:47:44;8.55;;;2.70;;
51048;SDS011;37084;55.228;36.450;2023-08-07T06:50:49;4.20;;;2.47;;
51048;SDS011;37084;55.228;36.450;2023-08-07T06:53:53;5.05;;;2.65;;
51048;SDS011;37084;55.228;36.450;2023-08-07T06:56:56;3.58;;;2.28;;
51048;SDS011;37084;55.228;36.450;2023-08-07T06:59:57;6.75;;;2.38;;
51048;SDS011;37084;55.228;36.450;2023-08-07T07:02:58;6.00;;;2.58;;
51048;SDS011;37084;55.228;36.450;2023-08-07T07:06:00;4.75;;;2.58;;
51048;SDS011;37084;55.228;36.450;2023-08-07T07:09:02;4.47;;;2.90;;
51048;SDS011;37084;55.228;36.450;2023-08-07T07:12:04;4.05;;;2.80;;
51048;SDS011;37084;55.228;36.450;2023-08-07T07:15:06;3.92;;;2.70;;
51048;SDS011;37084;55.228;36.450;2023-08-07T07:18:07;3.78;;;2.53;;
51048;SDS011;37084;55.228;36.450;2023-08-07T07:21:08;14.25;;;3.08;;
51048;SDS011;37084;55.228;36.450;2023-08-07T07:24:10;5.10;;;2.72;;
51048;SDS011;37084;55.228;36.450;2023-08-07T07:27:11;4.60;;;2.58;;
51048;SDS011;37084;55.228;36.450;2023-08-07T07:30:12;4.32;;;2.35;;
51048;SDS011;37084;55.228;36.450;2023-08-07T07:33:13;5.20;;;2.15;;
51048;SDS011;37084;55.228;36.450;2023-08-07T07:36:16;4.32;;;2.33;;
51048;SDS011;37084;55.228;36.450;2023-08-07T07:39:20;4.18;;;2.13;;
51048;SDS011;37084;55.228;36.450;2023-08-07T07:42:22;2.55;;;2.25;;
51048;SDS011;37084;55.228;36.450;2023-08-07T07:45:27;3.42;;;2.05;;
51048;SDS011;37084;55.228;36.450;2023-08-07T07:48:28;5.35;;;2.25;;
51048;SDS011;37084;55.228;36.450;2023-08-07T07:51:30;3.80;;;1.98;;
51048;SDS011;37084;55.228;36.450;2023-08-07T07:54:32;3.75;;;2.22;;
51048;SDS011;37084;55.228;36.450;2023-08-07T07:57:33;4.10;;;2.45;;
51048;SDS011;37084;55.228;36.450;2023-08-07T08:00:38;4.82;;;2.30;;
51048;SDS011;37084;55.228;36.450;2023-08-07T08:03:42;5.07;;;2.40;;
51048;SDS011;37084;55.228;36.450;2023-08-07T08:06:45;4.85;;;2.42;;
51048;SDS011;37084;55.228;36.450;2023-08-07T08:09:49;6.47;;;2.38;;
51048;SDS011;37084;55.228;36.450;2023-08-07T08:12:50;6.82;;;2.40;;
51048;SDS011;37084;55.228;36.450;2023-08-07T08:15:52;3.38;;;2.33;;
51048;SDS011;37084;55.228;36.450;2023-08-07T08:18:53;5.32;;;2.33;;
51048;SDS011;37084;55.228;36.450;2023-08-07T08:21:54;6.07;;;2.50;;
51048;SDS011;37084;55.228;36.450;2023-08-07T08:24:56;3.20;;;2.15;;
51048;SDS011;37084;55.228;36.450;2023-08-07T08:27:57;6.00;;;2.10;;
51048;SDS011;37084;55.228;36.450;2023-08-07T08:30:58;5.60;;;2.33;;
51048;SDS011;37084;55.228;36.450;2023-08-07T08:34:00;5.35;;;2.35;;
51048;SDS011;37084;55.228;36.450;2023-08-07T08:37:01;6.32;;;2.40;;
51048;SDS011;37084;55.228;36.450;2023-08-07T08:40:08;3.90;;;2.25;;
51048;SDS011;37084;55.228;36.450;2023-08-07T08:43:14;5.30;;;2.17;;
51048;SDS011;37084;55.228;36.450;2023-08-07T08:46:17;4.28;;;2.25;;
51048;SDS011;37084;55.228;36.450;2023-08-07T08:49:29;5.45;;;2.30;;
51048;SDS011;37084;55.228;36.450;2023-08-07T08:52:34;3.25;;;2.17;;
51048;SDS011;37084;55.228;36.450;2023-08-07T08:55:38;6.25;;;2.20;;
51048;SDS011;37084;55.228;36.450;2023-08-07T08:58:43;3.83;;;2.47;;
51048;SDS011;37084;55.228;36.450;2023-08-07T09:01:46;4.85;;;2.30;;
51048;SDS011;37084;55.228;36.450;2023-08-07T09:04:53;6.53;;;2.55;;
51048;SDS011;37084;55.228;36.450;2023-08-07T09:07:54;7.45;;;2.83;;
51048;SDS011;37084;55.228;36.450;2023-08-07T09:10:56;6.15;;;2.30;;
51048;SDS011;37084;55.228;36.450;2023-08-07T09:13:58;3.58;;;2.47;;
51048;SDS011;37084;55.228;36.450;2023-08-07T09:17:00;3.92;;;2.15;;
51048;SDS011;37084;55.228;36.450;2023-08-07T09:20:05;4.80;;;2.13;;
51048;SDS011;37084;55.228;36.450;2023-08-07T09:23:16;5.07;;;2.17;;
51048;SDS011;37084;55.228;36.450;2023-08-07T09:26:22;4.20;;;2.42;;
51048;SDS011;37084;55.228;36.450;2023-08-07T09:29:27;6.05;;;2.20;;
51048;SDS011;37084;55.228;36.450;2023-08-07T09:32:31;7.18;;;2.30;;
51048;SDS011;37084;55.228;36.450;2023-08-07T09:35:34;6.38;;;2.17;;
51048;SDS011;37084;55.228;36.450;2023-08-07T09:38:36;2.80;;;1.85;;
51048;SDS011;37084;55.228;36.450;2023-08-07T09:41:37;6.03;;;2.25;;
51048;SDS011;37084;55.228;36.450;2023-08-07T09:44:39;5.25;;;2.10;;
51048;SDS011;37084;55.228;36.450;2023-08-07T09:47:42;4.82;;;2.30;;
51048;SDS011;37084;55.228;36.450;2023-08-07T09:50:44;3.47;;;2.03;;
51048;SDS011;37084;55.228;36.450;2023-08-07T09:53:46;6.38;;;2.22;;
51048;SDS011;37084;55.228;36.450;2023-08-07T09:56:51;3.72;;;2.40;;
51048;SDS011;37084;55.228;36.450;2023-08-07T09:59:59;4.90;;;2.17;;
51048;SDS011;37084;55.228;36.450;2023-08-07T10:03:13;5.28;;;2.67;;
51048;SDS011;37084;55.228;36.450;2023-08-07T10:06:18;5.78;;;2.35;;
51048;SDS011;37084;55.228;36.450;2023-08-07T10:09:23;3.63;;;2.60;;
51048;SDS011;37084;55.228;36.450;2023-08-07T10:12:25;5.10;;;2.38;;
51048;SDS011;37084;55.228;36.450;2023-08-07T10:15:28;3.42;;;2.05;;
51048;SDS011;37084;55.228;36.450;2023-08-07T10:18:32;4.15;;;1.85;;
51048;SDS011;37084;55.228;36.450;2023-08-07T10:21:37;3.65;;;2.35;;
51048;SDS011;37084;55.228;36.450;2023-08-07T10:24:47;4.47;;;2.00;;
51048;SDS011;37084;55.228;36.450;2023-08-07T10:27:52;4.90;;;2.55;;
51048;SDS011;37084;55.228;36.450;2023-08-07T10:30:54;3.97;;;1.95;;
51048;SDS011;37084;55.228;36.450;2023-08-07T10:33:58;4.32;;;2.00;;
51048;SDS011;37084;55.228;36.450;2023-08-07T10:40:02;4.60;;;2.13;;
51048;SDS011;37084;55.228;36.450;2023-08-07T10:46:17;3.20;;;2.17;;
51048;SDS011;37084;55.228;36.450;2023-08-07T10:52:38;6.18;;;2.78;;
51048;SDS011;37084;55.228;36.450;2023-08-07T10:55:44;3.78;;;2.25;;
51048;SDS011;37084;55.228;36.450;2023-08-07T10:58:49;3.85;;;2.53;;
51048;SDS011;37084;55.228;36.450;2023-08-07T11:01:54;3.90;;;2.28;;
51048;SDS011;37084;55.228;36.450;2023-08-07T11:08:00;4.35;;;2.22;;
51048;SDS011;37084;55.228;36.450;2023-08-07T11:11:06;2.95;;;2.20;;
51048;SDS011;37084;55.228;36.450;2023-08-07T11:14:11;4.75;;;2.50;;
51048;SDS011;37084;55.228;36.450;2023-08-07T11:17:17;3.72;;;2.53;;
51048;SDS011;37084;55.228;36.450;2023-08-07T11:20:22;3.10;;;2.60;;
51048;SDS011;37084;55.228;36.450;2023-08-07T11:23:28;4.10;;;2.30;;
51048;SDS011;37084;55.228;36.450;2023-08-07T11:26:29;4.82;;;2.55;;
51048;SDS011;37084;55.228;36.450;2023-08-07T11:29:32;7.55;;;2.35;;
51048;SDS011;37084;55.228;36.450;2023-08-07T11:32:35;5.82;;;2.72;;
51048;SDS011;37084;55.228;36.450;2023-08-07T11:35:40;3.42;;;2.58;;
51048;SDS011;37084;55.228;36.450;2023-08-07T11:38:44;4.05;;;2.80;;
51048;SDS011;37084;55.228;36.450;2023-08-07T11:41:46;3.63;;;2.65;;
51048;SDS011;37084;55.228;36.450;2023-08-07T11:44:49;5.00;;;2.67;;
51048;SDS011;37084;55.228;36.450;2023-08-07T11:47:50;3.97;;;2.45;;
51048;SDS011;37084;55.228;36.450;2023-08-07T11:50:52;7.05;;;2.67;;
51048;SDS011;37084;55.228;36.450;2023-08-07T11:53:57;5.18;;;2.50;;
51048;SDS011;37084;55.228;36.450;2023-08-07T11:57:00;5.55;;;2.78;;
51048;SDS011;37084;55.228;36.450;2023-08-07T12:00:07;4.15;;;2.53;;
51048;SDS011;37084;55.228;36.450;2023-08-07T12:03:27;3.90;;;2.58;;
51048;SDS011;37084;55.228;36.450;2023-08-07T12:06:38;4.43;;;2.85;;
51048;SDS011;37084;55.228;36.450;2023-08-07T12:12:59;5.13;;;3.13;;
51048;SDS011;37084;55.228;36.450;2023-08-07T12:16:05;5.72;;;2.92;;
51048;SDS011;37084;55.228;36.450;2023-08-07T12:19:11;4.43;;;2.50;;
51048;SDS011;37084;55.228;36.450;2023-08-07T12:22:19;5.43;;;2.58;;
51048;SDS011;37084;55.228;36.450;2023-08-07T12:25:22;8.90;;;2.60;;
51048;SDS011;37084;55.228;36.450;2023-08-07T12:28:26;5.70;;;2.95;;
51048;SDS011;37084;55.228;36.450;2023-08-07T12:34:30;5.90;;;3.30;;
51048;SDS011;37084;55.228;36.450;2023-08-07T12:37:31;4.43;;;2.63;;
51048;SDS011;37084;55.228;36.450;2023-08-07T12:40:33;5.13;;;3.03;;
51048;SDS011;37084;55.228;36.450;2023-08-07T12:43:37;5.03;;;2.72;;
51048;SDS011;37084;55.228;36.450;2023-08-07T12:46:39;6.45;;;3.25;;
51048;SDS011;37084;55.228;36.450;2023-08-07T12:49:40;7.25;;;3.05;;
51048;SDS011;37084;55.228;36.450;2023-08-07T12:52:42;4.55;;;2.85;;
51048;SDS011;37084;55.228;36.450;2023-08-07T12:55:43;4.00;;;2.80;;
51048;SDS011;37084;55.228;36.450;2023-08-07T12:58:46;3.67;;;2.70;;
51048;SDS011;37084;55.228;36.450;2023-08-07T13:01:50;4.00;;;2.85;;
51048;SDS011;37084;55.228;36.450;2023-08-07T13:04:55;3.58;;;2.80;;
51048;SDS011;37084;55.228;36.450;2023-08-07T13:07:57;5.80;;;3.15;;
51048;SDS011;37084;55.228;36.450;2023-08-07T13:10:59;4.57;;;3.50;;
51048;SDS011;37084;55.228;36.450;2023-08-07T13:14:01;5.25;;;3.17;;
51048;SDS011;37084;55.228;36.450;2023-08-07T13:17:03;5.43;;;3.00;;
51048;SDS011;37084;55.228;36.450;2023-08-07T13:20:05;6.60;;;2.65;;
51048;SDS011;37084;55.228;36.450;2023-08-07T13:23:11;7.10;;;3.42;;
51048;SDS011;37084;55.228;36.450;2023-08-07T13:26:13;6.45;;;3.33;;
51048;SDS011;37084;55.228;36.450;2023-08-07T13:29:14;6.82;;;3.05;;
51048;SDS011;37084;55.228;36.450;2023-08-07T13:32:16;6.00;;;2.90;;
51048;SDS011;37084;55.228;36.450;2023-08-07T13:35:20;7.03;;;2.85;;
51048;SDS011;37084;55.228;36.450;2023-08-07T13:38:22;4.10;;;2.92;;
51048;SDS011;37084;55.228;36.450;2023-08-07T13:41:25;5.90;;;2.92;;
51048;SDS011;37084;55.228;36.450;2023-08-07T13:44:35;10.15;;;3.08;;
51048;SDS011;37084;55.228;36.450;2023-08-07T13:47:37;6.75;;;3.17;;
51048;SDS011;37084;55.228;36.450;2023-08-07T13:50:38;6.40;;;2.70;;
51048;SDS011;37084;55.228;36.450;2023-08-07T13:53:43;5.72;;;3.15;;
51048;SDS011;37084;55.228;36.450;2023-08-07T13:56:44;5.50;;;2.70;;
51048;SDS011;37084;55.228;36.450;2023-08-07T13:59:47;8.07;;;2.95;;
51048;SDS011;37084;55.228;36.450;2023-08-07T14:02:48;5.93;;;2.97;;
51048;SDS011;37084;55.228;36.450;2023-08-07T14:05:50;4.00;;;2.80;;
51048;SDS011;37084;55.228;36.450;2023-08-07T14:08:53;3.83;;;2.70;;
51048;SDS011;37084;55.228;36.450;2023-08-07T14:11:54;5.78;;;2.90;;
51048;SDS011;37084;55.228;36.450;2023-08-07T14:14:57;7.05;;;3.15;;
51048;SDS011;37084;55.228;36.450;2023-08-07T14:17:59;7.75;;;3.50;;
51048;SDS011;37084;55.228;36.450;2023-08-07T14:21:00;5.55;;;3.22;;
51048;SDS011;37084;55.228;36.450;2023-08-07T14:24:05;8.82;;;3.20;;
51048;SDS011;37084;55.228;36.450;2023-08-07T14:27:07;7.53;;;3.10;;
51048;SDS011;37084;55.228;36.450;2023-08-07T14:30:14;7.05;;;3.22;;
51048;SDS011;37084;55.228;36.450;2023-08-07T14:33:24;8.38;;;3.53;;
51048;SDS011;37084;55.228;36.450;2023-08-07T14:36:32;7.68;;;3.65;;
51048;SDS011;37084;55.228;36.450;2023-08-07T14:39:36;6.88;;;3.53;;
51048;SDS011;37084;55.228;36.450;2023-08-07T14:42:37;8.25;;;2.88;;
51048;SDS011;37084;55.228;36.450;2023-08-07T14:45:39;6.28;;;3.40;;
51048;SDS011;37084;55.228;36.450;2023-08-07T14:48:41;5.30;;;3.20;;
51048;SDS011;37084;55.228;36.450;2023-08-07T14:51:42;7.80;;;3.00;;
51048;SDS011;37084;55.228;36.450;2023-08-07T14:54:44;8.52;;;3.50;;
51048;SDS011;37084;55.228;36.450;2023-08-07T14:57:45;7.95;;;3.35;;
51048;SDS011;37084;55.228;36.450;2023-08-07T15:00:46;6.90;;;2.72;;
51048;SDS011;37084;55.228;36.450;2023-08-07T15:03:49;6.25;;;3.15;;
51048;SDS011;37084;55.228;36.450;2023-08-07T15:06:50;4.88;;;2.85;;
51048;SDS011;37084;55.228;36.450;2023-08-07T15:09:52;10.18;;;3.05;;
51048;SDS011;37084;55.228;36.450;2023-08-07T15:12:53;8.48;;;2.80;;
51048;SDS011;37084;55.228;36.450;2023-08-07T15:16:01;4.55;;;2.97;;
51048;SDS011;37084;55.228;36.450;2023-08-07T15:19:02;6.10;;;3.05;;
51048;SDS011;37084;55.228;36.450;2023-08-07T15:22:05;6.63;;;2.88;;
51048;SDS011;37084;55.228;36.450;2023-08-07T15:25:08;8.30;;;3.10;;
51048;SDS011;37084;55.228;36.450;2023-08-07T15:28:12;4.60;;;2.78;;
51048;SDS011;37084;55.228;36.450;2023-08-07T15:31:15;6.38;;;2.83;;
51048;SDS011;37084;55.228;36.450;2023-08-07T15:34:17;6.97;;;2.80;;
51048;SDS011;37084;55.228;36.450;2023-08-07T15:37:19;5.30;;;2.53;;
51048;SDS011;37084;55.228;36.450;2023-08-07T15:40:21;5.13;;;2.70;;
51048;SDS011;37084;55.228;36.450;2023-08-07T15:43:22;6.60;;;2.55;;
51048;SDS011;37084;55.228;36.450;2023-08-07T15:46:25;6.10;;;2.75;;
51048;SDS011;37084;55.228;36.450;2023-08-07T15:49:26;5.57;;;2.80;;
51048;SDS011;37084;55.228;36.450;2023-08-07T15:52:29;5.57;;;2.70;;
51048;SDS011;37084;55.228;36.450;2023-08-07T15:55:31;4.60;;;2.60;;
51048;SDS011;37084;55.228;36.450;2023-08-07T15:58:39;5.25;;;2.80;;
51048;SDS011;37084;55.228;36.450;2023-08-07T16:01:41;4.45;;;2.75;;
51048;SDS011;37084;55.228;36.450;2023-08-07T16:04:42;4.95;;;3.13;;
51048;SDS011;37084;55.228;36.450;2023-08-07T16:07:45;5.68;;;2.80;;
51048;SDS011;37084;55.228;36.450;2023-08-07T16:10:50;5.90;;;2.75;;
51048;SDS011;37084;55.228;36.450;2023-08-07T16:13:54;5.90;;;2.65;;
51048;SDS011;37084;55.228;36.450;2023-08-07T16:16:58;3.67;;;2.83;;
51048;SDS011;37084;55.228;36.450;2023-08-07T16:20:00;5.13;;;3.13;;
51048;SDS011;37084;55.228;36.450;2023-08-07T16:23:01;7.75;;;2.95;;
51048;SDS011;37084;55.228;36.450;2023-08-07T16:26:02;5.03;;;2.47;;
51048;SDS011;37084;55.228;36.450;2023-08-07T16:29:05;5.72;;;2.90;;
51048;SDS011;37084;55.228;36.450;2023-08-07T16:32:08;5.20;;;2.97;;
51048;SDS011;37084;55.228;36.450;2023-08-07T16:35:10;4.55;;;3.03;;
51048;SDS011;37084;55.228;36.450;2023-08-07T16:38:11;7.47;;;3.00;;
51048;SDS011;37084;55.228;36.450;2023-08-07T16:41:12;4.63;;;2.67;;
51048;SDS011;37084;55.228;36.450;2023-08-07T16:44:15;8.00;;;3.05;;
51048;SDS011;37084;55.228;36.450;2023-08-07T16:47:17;4.60;;;2.50;;
51048;SDS011;37084;55.228;36.450;2023-08-07T16:50:20;6.07;;;3.08;;
51048;SDS011;37084;55.228;36.450;2023-08-07T16:53:29;7.57;;;2.88;;
51048;SDS011;37084;55.228;36.450;2023-08-07T16:56:34;6.10;;;3.05;;
51048;SDS011;37084;55.228;36.450;2023-08-07T16:59:36;4.00;;;3.20;;
51048;SDS011;37084;55.228;36.450;2023-08-07T17:02:37;5.78;;;3.40;;
51048;SDS011;37084;55.228;36.450;2023-08-07T17:05:39;8.80;;;3.13;;
51048;SDS011;37084;55.228;36.450;2023-08-07T17:08:40;6.82;;;3.03;;
51048;SDS011;37084;55.228;36.450;2023-08-07T17:11:42;4.28;;;2.92;;
51048;SDS011;37084;55.228;36.450;2023-08-07T17:14:46;4.97;;;2.90;;
51048;SDS011;37084;55.228;36.450;2023-08-07T17:17:47;5.32;;;2.95;;
51048;SDS011;37084;55.228;36.450;2023-08-07T17:20:52;4.80;;;2.95;;
51048;SDS011;37084;55.228;36.450;2023-08-07T17:23:53;6.65;;;2.83;;
51048;SDS011;37084;55.228;36.450;2023-08-07T17:26:55;5.50;;;3.00;;
51048;SDS011;37084;55.228;36.450;2023-08-07T17:29:56;7.03;;;3.03;;
51048;SDS011;37084;55.228;36.450;2023-08-07T17:32:59;5.05;;;3.13;;
51048;SDS011;37084;55.228;36.450;2023-08-07T17:36:00;5.75;;;3.20;;
51048;SDS011;37084;55.228;36.450;2023-08-07T17:39:03;3.33;;;2.58;;
51048;SDS011;37084;55.228;36.450;2023-08-07T17:42:05;5.07;;;3.00;;
51048;SDS011;37084;55.228;36.450;2023-08-07T17:45:09;6.00;;;3.40;;
51048;SDS011;37084;55.228;36.450;2023-08-07T17:48:10;5.28;;;3.03;;
51048;SDS011;37084;55.228;36.450;2023-08-07T17:51:14;8.32;;;3.50;;
51048;SDS011;37084;55.228;36.450;2023-08-07T17:54:15;7.25;;;2.95;;
51048;SDS011;37084;55.228;36.450;2023-08-07T17:57:17;3.58;;;3.10;;
51048;SDS011;37084;55.228;36.450;2023-08-07T18:00:18;4.57;;;2.63;;
51048;SDS011;37084;55.228;36.450;2023-08-07T18:03:31;6.20;;;3.25;;
51048;SDS011;37084;55.228;36.450;2023-08-07T18:06:32;4.70;;;2.53;;
51048;SDS011;37084;55.228;36.450;2023-08-07T18:09:34;6.57;;;3.00;;
51048;SDS011;37084;55.228;36.450;2023-08-07T18:12:36;8.27;;;3.15;;
51048;SDS011;37084;55.228;36.450;2023-08-07T18:15:37;3.67;;;2.80;;
51048;SDS011;37084;55.228;36.450;2023-08-07T18:18:41;6.40;;;3.15;;
51048;SDS011;37084;55.228;36.450;2023-08-07T18:21:45;4.55;;;2.65;;
51048;SDS011;37084;55.228;36.450;2023-08-07T18:24:48;4.15;;;2.88;;
51048;SDS011;37084;55.228;36.450;2023-08-07T18:27:51;6.03;;;2.70;;
51048;SDS011;37084;55.228;36.450;2023-08-07T18:30:53;4.50;;;3.03;;
51048;SDS011;37084;55.228;36.450;2023-08-07T18:33:55;4.00;;;2.72;;
51048;SDS011;37084;55.228;36.450;2023-08-07T18:36:57;3.92;;;2.70;;